METAR Data

Data at: 2108 UTC 01 Dec 2021

METAR for:KPWM (Portland Intl, ME, US)
Text:KPWM 012051Z 24008KT 10SM FEW050 06/M05 A3006 RMK AO2 SLP179 T00561050 53017
Temperature: 5.6°C ( 42°F)
Dewpoint: -5.0°C ( 23°F) [RH = 46%]
Pressure (altimeter):30.06 inches Hg (1018.0 mb) [Sea level pressure: 1017.9 mb]
Winds:from the WSW (240 degrees) at 9 MPH (8 knots; 4.1 m/s)
Visibility:10 or more sm (16+ km)
Ceiling:at least 12,000 feet AGL
Clouds: few clouds at 5000 feet AGL